Time;durP1;ratioP1;P1;durP2;ratioP2;P2;SDS_P1;SDS_P2;PMS_P1;PMS_P2;Temp;Humidity;BMP_temperature;BMP_pressure;BME280_temperature;BME280_humidity;BME280_pressure;Samples;Min_cycle;Max_cycle;Signal;HPM_P1;HPM_P2
2021/08/22 00:02:22;;;;;;;45.25;24.08;;;;;;;20.25;79.72;101535.88;4965281;28;20027;-49
2021/08/22 00:04:48;;;;;;;25.58;15.80;;;;;;;20.17;78.83;101532.50;4963504;28;20441;-49
2021/08/22 00:07:13;;;;;;;30.83;18.52;;;;;;;20.13;79.37;101531.66;4960198;28;20750;-49
2021/08/22 00:09:38;;;;;;;25.63;15.55;;;;;;;20.13;79.18;101528.13;4969141;28;20065;-50
2021/08/22 00:12:04;;;;;;;29.13;17.05;;;;;;;20.08;79.72;101517.63;4957185;28;20512;-52
2021/08/22 00:14:29;;;;;;;30.67;17.35;;;;;;;20.05;79.89;101511.53;4968120;28;20056;-50
2021/08/22 00:16:55;;;;;;;28.08;15.85;;;;;;;20.04;79.98;101507.13;4971041;28;20026;-49
2021/08/22 00:19:20;;;;;;;26.23;15.75;;;;;;;20.00;79.84;101508.06;4979585;28;20034;-49
2021/08/22 00:21:46;;;;;;;27.08;16.10;;;;;;;19.93;79.83;101504.66;4966007;28;20482;-49
2021/08/22 00:24:11;;;;;;;24.23;15.13;;;;;;;19.82;79.90;101504.78;4966432;28;20475;-47
2021/08/22 00:26:36;;;;;;;22.98;14.82;;;;;;;19.73;79.60;101507.56;4968847;28;20054;-48
2021/08/22 00:29:02;;;;;;;26.98;15.52;;;;;;;19.65;79.78;101517.38;4962643;28;20105;-47
2021/08/22 00:31:27;;;;;;;24.15;15.55;;;;;;;19.55;79.61;101518.41;4966565;28;20046;-49
2021/08/22 00:33:53;;;;;;;24.00;15.18;;;;;;;19.47;79.89;101514.97;4970972;28;20116;-48
2021/08/22 00:36:18;;;;;;;24.67;15.75;;;;;;;19.38;79.80;101507.16;4964907;28;20033;-47
2021/08/22 00:38:47;;;;;;;23.92;15.02;;;;;;;19.30;79.79;101520.44;4970248;28;20139;-48
2021/08/22 00:41:12;;;;;;;24.85;15.40;;;;;;;19.20;79.82;101510.00;4969991;28;20049;-52
2021/08/22 00:43:38;;;;;;;29.38;16.60;;;;;;;19.18;80.14;101511.78;4968899;28;20481;-49
2021/08/22 00:46:03;;;;;;;30.63;17.40;;;;;;;19.15;80.23;101514.50;4962703;28;20386;-51
2021/08/22 00:48:29;;;;;;;36.08;18.60;;;;;;;19.11;80.54;101510.09;4966417;28;20044;-47
2021/08/22 00:50:55;;;;;;;37.97;19.42;;;;;;;19.09;80.64;101515.41;4967301;28;20333;-49
2021/08/22 00:53:20;;;;;;;35.72;19.80;;;;;;;19.07;80.44;101519.84;4967233;28;20041;-49
2021/08/22 00:55:45;;;;;;;39.10;19.63;;;;;;;19.08;80.39;101518.09;4963558;28;20034;-45
2021/08/22 00:58:11;;;;;;;40.65;20.60;;;;;;;19.11;81.02;101524.19;4962109;28;20077;-47
2021/08/22 01:00:37;;;;;;;40.35;21.60;;;;;;;19.20;81.07;101521.47;4966924;28;20422;-48
2021/08/22 01:03:06;;;;;;;46.13;23.15;;;;;;;19.30;81.05;101522.22;4959090;28;20557;-52
2021/08/22 01:05:35;;;;;;;43.67;22.27;;;;;;;19.36;81.14;101524.78;4960712;28;20109;-47
2021/08/22 01:08:23;;;;;;;44.95;23.00;;;;;;;19.40;81.15;101510.63;4965626;28;20104;-46
2021/08/22 01:11:02;;;;;;;46.47;22.80;;;;;;;19.46;81.08;101515.88;4966742;28;20037;-48
2021/08/22 01:13:33;;;;;;;37.95;20.98;;;;;;;19.49;80.72;101509.69;4978948;28;20065;-49
2021/08/22 01:15:59;;;;;;;39.55;21.80;;;;;;;19.51;80.62;101508.78;4959706;28;20685;-47
2021/08/22 01:18:26;;;;;;;46.28;23.33;;;;;;;19.53;80.72;101506.97;4974922;28;20109;-48
2021/08/22 01:21:05;;;;;;;37.60;20.98;;;;;;;19.56;80.55;101501.66;4966399;28;20022;-48
2021/08/22 01:23:32;;;;;;;40.20;21.88;;;;;;;19.57;80.28;101503.41;4956120;28;20504;-47
2021/08/22 01:25:58;;;;;;;43.60;21.90;;;;;;;19.59;80.27;101504.22;4965970;28;20434;-50
2021/08/22 01:28:23;;;;;;;41.40;21.85;;;;;;;19.61;80.15;101504.22;4964767;28;20515;-47
2021/08/22 01:30:49;;;;;;;38.22;21.73;;;;;;;19.62;80.00;101498.91;4964989;28;20062;-48
2021/08/22 01:33:16;;;;;;;35.67;21.15;;;;;;;19.63;79.95;101498.03;4963411;28;20162;-48
2021/08/22 01:35:43;;;;;;;41.85;22.10;;;;;;;19.65;80.22;101496.22;4965855;28;20101;-53
2021/08/22 01:38:08;;;;;;;41.72;23.50;;;;;;;19.64;80.15;101499.75;4962145;28;20042;-46
2021/08/22 01:40:34;;;;;;;42.67;23.67;;;;;;;19.63;80.37;101500.69;4971084;28;20383;-49
2021/08/22 01:43:01;;;;;;;44.08;23.58;;;;;;;19.64;80.01;101496.25;4963753;28;20402;-47
2021/08/22 01:45:26;;;;;;;43.17;22.92;;;;;;;19.69;80.12;101497.06;4965448;28;20306;-48
2021/08/22 01:47:51;;;;;;;45.58;23.67;;;;;;;19.67;80.12;101498.84;4962388;28;20033;-48
2021/08/22 01:50:19;;;;;;;43.75;23.10;;;;;;;19.66;79.96;101491.81;4965090;28;20342;-49
2021/08/22 01:52:45;;;;;;;46.58;24.55;;;;;;;19.61;80.13;101497.16;4959111;28;20065;-48
2021/08/22 01:55:11;;;;;;;46.35;24.17;;;;;;;19.65;79.94;101492.69;4961061;28;20117;-48
2021/08/22 01:57:41;;;;;;;46.28;23.50;;;;;;;19.65;79.86;101498.84;4963218;28;20054;-47
2021/08/22 02:00:07;;;;;;;53.15;25.65;;;;;;;19.62;79.89;101498.91;4964333;28;20056;-48
2021/08/22 02:02:33;;;;;;;51.97;26.40;;;;;;;19.62;80.06;101503.34;4961930;28;20054;-48
2021/08/22 02:05:00;;;;;;;50.10;25.05;;;;;;;19.66;80.30;101503.25;4962728;28;20034;-47
2021/08/22 02:07:30;;;;;;;55.38;26.75;;;;;;;19.64;80.35;101499.75;4964911;28;20445;-46
2021/08/22 02:10:00;;;;;;;50.85;25.23;;;;;;;19.66;80.26;101500.63;4965212;28;20026;-47
2021/08/22 02:12:26;;;;;;;49.95;23.67;;;;;;;19.69;80.05;101492.66;4946522;28;20386;-49
2021/08/22 02:14:57;;;;;;;47.03;22.02;;;;;;;19.67;79.78;101496.19;4962443;28;20042;-47
2021/08/22 02:17:27;;;;;;;39.70;20.05;;;;;;;19.63;79.62;101495.38;4973672;28;20604;-47
2021/08/22 02:19:53;;;;;;;35.72;18.90;;;;;;;19.59;79.53;101495.41;4966226;28;20427;-46
2021/08/22 02:22:19;;;;;;;37.65;18.35;;;;;;;19.51;79.60;101484.97;4973707;28;20034;-48
2021/08/22 02:24:44;;;;;;;35.08;17.73;;;;;;;19.49;79.37;101486.75;4963753;28;20420;-46
2021/08/22 02:27:10;;;;;;;36.08;18.48;;;;;;;19.40;79.32;101484.19;4966434;28;20037;-48
2021/08/22 02:29:45;;;;;;;37.70;18.90;;;;;;;19.36;79.57;101490.41;4961198;28;20890;-49
2021/08/22 02:32:10;;;;;;;32.97;18.70;;;;;;;19.36;79.61;101496.56;4964052;28;20041;-46
2021/08/22 02:34:35;;;;;;;37.03;17.83;;;;;;;19.34;79.86;101492.19;4959772;28;20026;-49
2021/08/22 02:37:01;;;;;;;33.78;19.00;;;;;;;19.35;80.32;101497.47;4968333;28;20428;-49
2021/08/22 02:39:26;;;;;;;35.83;18.13;;;;;;;19.39;80.37;101501.81;4966303;28;20062;-47
2021/08/22 02:41:52;;;;;;;38.22;17.60;;;;;;;19.41;80.31;101502.69;4966907;28;20372;-48
2021/08/22 02:44:18;;;;;;;27.17;15.23;;;;;;;19.44;80.17;101502.66;4957911;28;20030;-47
2021/08/22 02:46:43;;;;;;;27.30;14.55;;;;;;;19.44;80.08;101501.78;4965667;28;20053;-46
2021/08/22 02:49:09;;;;;;;18.77;8.93;;;;;;;19.43;80.03;101497.38;4957199;28;20125;-49
2021/08/22 02:51:34;;;;;;;11.30;6.43;;;;;;;19.44;79.85;101504.41;4965077;28;20034;-49
2021/08/22 02:53:59;;;;;;;9.60;5.25;;;;;;;19.42;79.60;101493.84;4968349;28;20030;-49
2021/08/22 02:56:25;;;;;;;9.57;4.47;;;;;;;19.40;79.70;101494.75;4963655;28;20153;-47
2021/08/22 02:58:50;;;;;;;9.32;4.30;;;;;;;19.35;79.87;101491.31;4971259;28;20061;-46
2021/08/22 03:01:16;;;;;;;7.55;4.10;;;;;;;19.32;79.51;101486.94;4970256;28;21496;-48
2021/08/22 03:03:41;;;;;;;14.30;4.32;;;;;;;19.29;79.52;101486.97;4963724;28;20022;-50
2021/08/22 03:06:06;;;;;;;10.90;4.07;;;;;;;19.25;79.50;101482.63;4954272;28;20447;-48
2021/08/22 03:08:32;;;;;;;10.15;3.90;;;;;;;19.23;79.52;101480.88;4968873;28;20474;-51
2021/08/22 03:10:57;;;;;;;9.80;4.30;;;;;;;19.17;79.37;101481.84;4967662;28;20147;-48
2021/08/22 03:13:22;;;;;;;10.55;4.13;;;;;;;19.09;79.30;101477.56;4959931;28;20034;-47
2021/08/22 03:15:48;;;;;;;11.60;4.15;;;;;;;18.97;79.52;101486.47;4969972;28;20033;-48
2021/08/22 03:18:13;;;;;;;6.35;3.90;;;;;;;18.86;79.26;101483.97;4965172;28;20037;-48
2021/08/22 03:20:38;;;;;;;13.45;4.47;;;;;;;18.78;79.63;101483.19;4969855;28;20449;-47
2021/08/22 03:23:04;;;;;;;8.52;4.13;;;;;;;18.71;79.66;101486.78;4964062;28;20327;-47
2021/08/22 03:25:29;;;;;;;10.82;4.97;;;;;;;18.70;80.15;101492.06;4965875;28;20397;-47
2021/08/22 03:27:55;;;;;;;11.40;5.47;;;;;;;18.72;80.63;101491.19;4966313;28;20482;-49
2021/08/22 03:30:20;;;;;;;13.38;5.95;;;;;;;18.72;80.33;101488.53;4961550;28;20046;-49
2021/08/22 03:32:46;;;;;;;11.70;5.90;;;;;;;18.70;80.15;101492.94;4972278;28;20398;-48
2021/08/22 03:35:11;;;;;;;14.70;6.32;;;;;;;18.68;80.43;101496.47;4968963;28;20031;-46
2021/08/22 03:37:37;;;;;;;16.90;7.70;;;;;;;18.63;80.43;101493.91;4965318;28;20069;-47
2021/08/22 03:40:02;;;;;;;18.67;8.13;;;;;;;18.57;80.20;101488.69;4965964;28;20049;-50
2021/08/22 03:42:28;;;;;;;19.30;9.00;;;;;;;18.53;79.92;101492.22;4969331;28;20443;-46
2021/08/22 03:44:53;;;;;;;24.17;9.65;;;;;;;18.47;80.17;101495.78;4965374;28;20057;-46
2021/08/22 03:47:18;;;;;;;23.20;11.27;;;;;;;18.41;80.21;101498.47;4967376;28;21110;-49
2021/08/22 03:49:44;;;;;;;28.65;11.98;;;;;;;18.39;80.56;101494.09;4969604;28;20462;-46
2021/08/22 03:52:09;;;;;;;34.05;13.60;;;;;;;18.36;81.00;101492.34;4967590;28;20030;-51
2021/08/22 03:54:34;;;;;;;35.28;14.65;;;;;;;18.38;81.11;101502.91;4966821;28;20826;-49
2021/08/22 03:57:00;;;;;;;32.78;14.02;;;;;;;18.44;81.29;101498.44;4969868;28;20466;-50
2021/08/22 03:59:25;;;;;;;46.58;17.48;;;;;;;18.52;81.30;101501.91;4968281;28;20037;-47
2021/08/22 04:01:50;;;;;;;45.47;18.10;;;;;;;18.58;81.18;101504.50;4969032;28;20036;-47
2021/08/22 04:04:16;;;;;;;47.83;18.90;;;;;;;18.64;81.25;101504.44;4962230;28;20050;-47
2021/08/22 04:06:48;;;;;;;49.97;20.55;;;;;;;18.72;81.04;101498.22;4968202;28;20085;-49
2021/08/22 04:09:13;;;;;;;52.95;21.65;;;;;;;18.82;81.03;101489.31;4963736;28;20057;-47
2021/08/22 04:11:39;;;;;;;57.08;22.00;;;;;;;18.85;80.88;101498.06;4968552;28;20030;-48
2021/08/22 04:14:08;;;;;;;61.35;25.02;;;;;;;18.85;80.71;101500.69;4962777;28;20058;-48
2021/08/22 04:16:34;;;;;;;67.85;25.35;;;;;;;18.85;80.75;101497.19;4966409;28;20349;-49
2021/08/22 04:18:59;;;;;;;64.60;24.92;;;;;;;18.89;80.63;101493.63;4963412;28;20039;-49
2021/08/22 04:21:25;;;;;;;69.43;27.20;;;;;;;18.90;80.74;101492.75;4964472;28;20298;-50
2021/08/22 04:23:50;;;;;;;64.53;25.75;;;;;;;18.95;80.72;101493.56;4970377;28;20526;-48
2021/08/22 04:26:16;;;;;;;73.82;28.70;;;;;;;18.95;80.65;101493.56;4965995;28;20031;-48
2021/08/22 04:28:41;;;;;;;67.75;28.55;;;;;;;18.98;80.60;101489.09;4969046;28;20077;-48
2021/08/22 04:31:06;;;;;;;67.32;27.50;;;;;;;19.02;80.71;101488.19;4964976;28;20495;-48
2021/08/22 04:33:32;;;;;;;69.65;28.48;;;;;;;19.01;80.43;101491.72;4968299;28;20049;-47
2021/08/22 04:35:57;;;;;;;72.93;28.70;;;;;;;19.10;80.35;101489.84;4962721;28;20074;-49
2021/08/22 04:38:23;;;;;;;66.60;27.83;;;;;;;19.06;80.21;101489.03;4967078;28;20764;-46
2021/08/22 04:40:48;;;;;;;69.20;29.80;;;;;;;19.08;80.35;101491.66;4972420;28;20025;-49
2021/08/22 04:43:13;;;;;;;70.13;29.13;;;;;;;19.12;80.26;101494.25;4959788;28;20030;-50
2021/08/22 04:45:39;;;;;;;72.00;30.40;;;;;;;19.12;80.53;101488.97;4965604;28;20100;-46
2021/08/22 04:48:04;;;;;;;71.82;29.77;;;;;;;19.09;80.12;101486.34;4950044;28;20173;-46
2021/08/22 04:50:30;;;;;;;65.22;28.27;;;;;;;19.13;80.03;101484.53;4960732;28;20104;-49
2021/08/22 04:52:55;;;;;;;62.42;29.25;;;;;;;19.09;79.79;101478.41;4963583;28;20037;-47
2021/08/22 04:55:21;;;;;;;65.47;28.25;;;;;;;19.12;79.89;101477.50;4959999;28;20041;-50
2021/08/22 04:57:47;;;;;;;60.92;27.90;;;;;;;19.15;79.88;101474.84;4966024;28;20058;-47
2021/08/22 05:00:12;;;;;;;61.63;28.05;;;;;;;19.18;79.65;101480.06;4973829;28;20027;-47
2021/08/22 05:02:39;;;;;;;63.45;27.85;;;;;;;19.15;79.54;101475.69;4968254;28;20623;-45
2021/08/22 05:05:04;;;;;;;59.72;27.55;;;;;;;19.18;79.65;101473.03;4968791;28;20173;-47
2021/08/22 05:07:29;;;;;;;59.85;27.38;;;;;;;19.19;79.66;101474.78;4965029;28;20465;-47
2021/08/22 05:09:55;;;;;;;62.47;27.67;;;;;;;19.25;79.64;101476.47;4966904;28;20891;-49
2021/08/22 05:12:21;;;;;;;60.92;27.40;;;;;;;19.28;79.38;101482.56;4964738;28;20116;-48
2021/08/22 05:14:46;;;;;;;59.58;28.00;;;;;;;19.32;79.14;101488.72;4966016;28;20034;-48
2021/08/22 05:17:11;;;;;;;63.28;27.13;;;;;;;19.36;79.52;101482.47;4960255;28;20092;-49
2021/08/22 05:19:37;;;;;;;58.13;27.35;;;;;;;19.32;79.45;101486.06;4967480;28;20145;-51
2021/08/22 05:22:03;;;;;;;65.40;28.58;;;;;;;19.35;79.67;101488.66;4978709;28;20149;-51
2021/08/22 05:24:29;;;;;;;59.33;27.25;;;;;;;19.40;79.41;101495.63;4966182;28;20081;-50
2021/08/22 05:26:55;;;;;;;63.35;27.25;;;;;;;18.72;81.83;101488.53;4965339;28;20474;-48
2021/08/22 05:29:20;;;;;;;60.45;27.60;;;;;;;18.23;84.55;101499.53;4968512;28;20081;-48
2021/08/22 05:31:45;;;;;;;58.38;27.50;;;;;;;18.17;84.93;101496.06;4966831;28;20030;-50
2021/08/22 05:34:11;;;;;;;60.83;26.60;;;;;;;18.13;85.80;101496.94;4966621;28;20119;-47
2021/08/22 05:36:37;;;;;;;60.05;27.88;;;;;;;18.12;85.76;101493.41;4966777;28;20165;-49
2021/08/22 05:39:03;;;;;;;59.00;27.58;;;;;;;18.14;85.93;101498.69;4964459;28;20028;-47
2021/08/22 05:41:29;;;;;;;59.03;27.20;;;;;;;18.14;85.74;101504.84;4964034;28;20184;-47
2021/08/22 05:43:54;;;;;;;59.15;27.70;;;;;;;18.16;85.62;101510.13;4964942;28;20030;-48
2021/08/22 05:46:20;;;;;;;53.22;25.67;;;;;;;18.16;85.64;101507.50;4960490;28;20520;-47
2021/08/22 05:48:45;;;;;;;55.25;25.58;;;;;;;18.16;85.40;101505.72;4964756;28;20500;-47
2021/08/22 05:51:19;;;;;;;52.72;26.33;;;;;;;18.14;85.54;101506.63;4959037;28;20030;-48
2021/08/22 05:53:44;;;;;;;49.92;25.55;;;;;;;18.15;85.27;101500.44;4961483;28;20488;-48
2021/08/22 05:56:10;;;;;;;53.13;25.58;;;;;;;18.16;85.40;101504.84;4964027;28;20599;-48
2021/08/22 05:58:36;;;;;;;49.58;24.00;;;;;;;18.15;85.69;101511.88;4963441;28;20079;-49
2021/08/22 06:01:02;;;;;;;49.88;25.23;;;;;;;18.15;85.91;101508.38;4967702;28;20528;-46
2021/08/22 06:03:27;;;;;;;50.92;25.00;;;;;;;18.15;85.78;101509.25;4966021;28;20033;-46
2021/08/22 06:05:53;;;;;;;52.40;25.70;;;;;;;18.15;85.75;101511.88;4963603;28;20019;-47
2021/08/22 06:08:19;;;;;;;49.97;24.75;;;;;;;18.17;85.84;101512.75;4960071;28;20125;-47
2021/08/22 06:10:44;;;;;;;45.53;24.27;;;;;;;18.21;85.92;101514.47;4968309;28;20033;-47
2021/08/22 06:13:10;;;;;;;44.63;22.98;;;;;;;18.23;85.42;101515.34;4964885;28;20565;-49
2021/08/22 06:15:36;;;;;;;46.63;24.38;;;;;;;18.29;85.16;101517.06;4967993;28;20037;-50
2021/08/22 06:18:01;;;;;;;40.55;21.58;;;;;;;18.34;84.90;101512.63;4961431;28;20026;-46
2021/08/22 06:20:27;;;;;;;40.90;22.83;;;;;;;18.39;84.61;101516.09;4966245;28;20441;-48
2021/08/22 06:22:52;;;;;;;42.17;22.10;;;;;;;18.44;84.82;101522.19;4963221;28;20023;-50
2021/08/22 06:25:17;;;;;;;42.22;22.27;;;;;;;18.46;84.58;101523.06;4970030;28;20033;-47
2021/08/22 06:27:43;;;;;;;38.15;20.30;;;;;;;18.52;84.79;101519.50;4969868;28;20512;-48
2021/08/22 06:30:08;;;;;;;37.85;20.95;;;;;;;18.56;84.25;101518.59;4966837;28;20063;-47
2021/08/22 06:32:34;;;;;;;37.95;20.33;;;;;;;18.60;83.51;101520.34;4973284;28;20105;-47
2021/08/22 06:34:59;;;;;;;37.63;20.38;;;;;;;18.65;84.10;101518.53;4968481;28;20026;-50
2021/08/22 06:37:25;;;;;;;34.22;19.42;;;;;;;18.72;83.80;101524.63;4969252;28;20413;-48
2021/08/22 06:39:50;;;;;;;36.38;19.35;;;;;;;18.74;83.48;101526.34;4969573;28;20041;-48
2021/08/22 06:42:16;;;;;;;34.78;19.20;;;;;;;18.77;83.52;101530.75;4958130;28;20062;-47
2021/08/22 06:44:42;;;;;;;35.03;19.67;;;;;;;18.74;84.37;101526.34;4974581;28;20041;-48
2021/08/22 06:47:10;;;;;;;37.17;19.90;;;;;;;18.68;83.88;101530.81;4966312;28;20694;-48
2021/08/22 06:49:35;;;;;;;40.25;19.83;;;;;;;18.62;83.81;101537.91;4971242;28;20038;-50
2021/08/22 06:52:00;;;;;;;38.78;19.25;;;;;;;18.60;83.95;101534.41;4968001;28;20037;-48
2021/08/22 06:54:26;;;;;;;27.20;17.05;;;;;;;18.62;83.32;101539.69;4961724;28;20023;-46
2021/08/22 06:56:55;;;;;;;34.38;18.08;;;;;;;18.64;83.82;101541.44;4972885;28;20019;-48
2021/08/22 06:59:21;;;;;;;31.55;17.27;;;;;;;18.62;83.46;101537.91;4964810;28;20026;-47
2021/08/22 07:01:46;;;;;;;30.75;16.70;;;;;;;18.62;83.22;101531.75;4971943;28;20033;-49
2021/08/22 07:04:12;;;;;;;29.48;16.55;;;;;;;18.61;82.90;101538.78;4968107;28;20030;-48
2021/08/22 07:06:38;;;;;;;31.83;17.38;;;;;;;18.68;82.50;101550.19;4970032;28;20060;-52
2021/08/22 07:09:03;;;;;;;29.50;15.48;;;;;;;18.77;82.97;101541.31;4968102;28;20537;-49
2021/08/22 07:11:30;;;;;;;24.15;15.55;;;;;;;18.87;83.09;101543.84;4962994;28;20030;-53
2021/08/22 07:13:55;;;;;;;23.63;14.00;;;;;;;19.04;82.41;101541.91;4965260;28;20030;-51
2021/08/22 07:16:21;;;;;;;28.10;16.02;;;;;;;19.14;82.73;101540.03;4967046;28;20133;-47
2021/08/22 07:18:46;;;;;;;23.58;14.45;;;;;;;19.30;80.91;101543.38;4970165;28;20045;-48
2021/08/22 07:21:12;;;;;;;25.52;14.18;;;;;;;19.44;81.00;101547.59;4967821;28;20077;-47
2021/08/22 07:23:37;;;;;;;25.42;14.40;;;;;;;19.52;80.92;101541.38;4969397;28;20133;-48
2021/08/22 07:26:02;;;;;;;23.33;14.15;;;;;;;19.68;80.28;101543.81;4968285;28;20034;-50
2021/08/22 07:28:28;;;;;;;21.00;12.82;;;;;;;19.91;80.85;101546.13;4970949;28;20090;-47
2021/08/22 07:30:53;;;;;;;23.85;13.40;;;;;;;20.17;79.03;101540.44;4970924;28;20489;-48
2021/08/22 07:33:19;;;;;;;23.05;12.85;;;;;;;20.48;78.08;101546.16;4963934;28;20576;-47
2021/08/22 07:35:44;;;;;;;19.13;11.73;;;;;;;20.85;76.97;101546.41;4968255;28;20117;-50
2021/08/22 07:38:09;;;;;;;20.83;11.70;;;;;;;21.23;75.44;101543.91;4967638;28;20065;-48
2021/08/22 07:40:36;;;;;;;19.67;11.52;;;;;;;21.41;74.66;101546.19;4969469;28;20529;-46
2021/08/22 07:43:01;;;;;;;17.40;10.88;;;;;;;21.74;73.73;101549.03;4964622;28;20076;-47
2021/08/22 07:45:27;;;;;;;16.13;10.30;;;;;;;22.02;71.80;101550.19;4961992;28;20505;-46
2021/08/22 07:47:52;;;;;;;17.83;9.30;;;;;;;22.64;70.82;101545.13;4971002;28;20042;-48
2021/08/22 07:50:17;;;;;;;18.52;10.27;;;;;;;23.26;68.98;101540.78;4963502;28;20022;-46
2021/08/22 07:52:43;;;;;;;15.82;9.68;;;;;;;24.06;65.51;101541.97;4969377;28;20432;-48
2021/08/22 07:55:09;;;;;;;13.15;8.57;;;;;;;24.79;64.01;101532.41;4963670;28;20030;-47
2021/08/22 07:57:34;;;;;;;13.35;9.23;;;;;;;25.01;61.75;101541.41;4968977;28;20065;-47
2021/08/22 08:00:00;;;;;;;18.10;9.48;;;;;;;24.86;61.70;101536.63;4961176;28;20121;-46
2021/08/22 08:02:25;;;;;;;17.70;9.32;;;;;;;24.32;65.30;101534.03;4952628;28;20113;-48
2021/08/22 08:04:51;;;;;;;14.85;9.32;;;;;;;24.13;62.46;101527.53;4968579;28;20040;-48
2021/08/22 08:07:18;;;;;;;14.95;9.25;;;;;;;23.39;67.44;101544.84;4966746;28;20129;-49
2021/08/22 08:09:43;;;;;;;15.25;9.27;;;;;;;22.81;67.61;101550.91;4964753;28;20038;-50
2021/08/22 08:12:09;;;;;;;15.98;9.35;;;;;;;22.43;67.34;101548.34;4959361;28;20038;-48
2021/08/22 08:14:34;;;;;;;13.52;9.00;;;;;;;22.13;68.60;101549.94;4970468;28;20057;-50
2021/08/22 08:16:59;;;;;;;17.08;9.52;;;;;;;21.76;71.02;101555.19;4963128;28;20060;-50
2021/08/22 08:19:25;;;;;;;15.02;9.73;;;;;;;21.60;72.62;101549.31;4962637;28;20579;-48
2021/08/22 08:21:50;;;;;;;15.05;8.80;;;;;;;21.52;70.38;101545.09;4966077;28;20095;-48
2021/08/22 08:24:16;;;;;;;13.88;8.98;;;;;;;21.44;71.39;101556.75;4964054;28;20510;-48
2021/08/22 08:26:41;;;;;;;14.02;9.73;;;;;;;21.34;73.43;101562.28;4965465;28;20027;-52
2021/08/22 08:29:07;;;;;;;16.25;9.25;;;;;;;21.38;72.03;101569.25;4963279;28;20050;-47
2021/08/22 08:31:35;;;;;;;15.82;9.43;;;;;;;21.28;73.21;101565.03;4965582;28;20053;-48
2021/08/22 08:34:01;;;;;;;19.00;9.98;;;;;;;21.07;73.82;101563.63;4962031;28;20479;-50
2021/08/22 08:36:26;;;;;;;17.88;11.02;;;;;;;20.85;75.57;101564.94;4966844;28;20031;-47
2021/08/22 08:38:51;;;;;;;20.92;11.10;;;;;;;20.60;76.29;101564.50;4967395;28;20470;-49
2021/08/22 08:41:17;;;;;;;14.00;8.85;;;;;;;20.42;76.83;101572.75;4925732;28;20039;-50
2021/08/22 08:43:46;;;;;;;16.70;10.07;;;;;;;20.24;78.30;101576.53;4954057;28;20037;-47
2021/08/22 08:46:22;;;;;;;20.30;11.18;;;;;;;19.98;79.85;101574.25;4963617;28;20034;-47
2021/08/22 08:48:54;;;;;;;19.98;12.23;;;;;;;19.85;80.50;101573.56;4961731;28;20334;-46
2021/08/22 08:51:28;;;;;;;20.88;12.13;;;;;;;19.88;80.49;101572.66;4962091;28;20038;-49
2021/08/22 08:54:01;;;;;;;21.48;12.68;;;;;;;19.81;81.09;101568.31;4968640;28;20027;-48
2021/08/22 08:56:39;;;;;;;18.85;11.60;;;;;;;19.75;81.08;101568.41;4960933;28;20404;-50
2021/08/22 08:59:04;;;;;;;19.67;11.90;;;;;;;19.79;81.11;101571.00;4965148;28;20015;-47
2021/08/22 09:01:29;;;;;;;21.15;12.95;;;;;;;19.78;81.94;101571.00;4964302;28;20434;-48
2021/08/22 09:04:43;;;;;;;18.20;11.70;;;;;;;19.82;81.25;101573.56;4967697;28;20478;-46
2021/08/22 09:07:47;;;;;;;19.23;12.07;;;;;;;19.85;81.29;101576.19;4929938;28;20035;-45
2021/08/22 09:10:50;;;;;;;19.65;12.05;;;;;;;19.94;81.36;101577.84;4969280;28;20052;-46
2021/08/22 09:13:57;;;;;;;19.95;11.90;;;;;;;20.01;80.97;101582.13;4958658;28;20057;-48
2021/08/22 09:16:52;;;;;;;19.00;11.43;;;;;;;20.07;80.33;101576.75;4966015;28;20577;-47
2021/08/22 09:19:37;;;;;;;20.60;12.20;;;;;;;19.99;81.16;101577.78;4961630;28;20431;-46
2021/08/22 09:22:11;;;;;;;;;;;;;;;19.88;81.81;101583.22;4966643;28;20632;-47
2021/08/22 09:24:55;;;;;;;;;;;;;;;19.81;81.95;101577.16;4962064;28;19921;-47
2021/08/22 09:27:58;;;;;;;15.48;10.27;;;;;;;19.73;81.10;101588.72;4964756;28;20016;-50
2021/08/22 09:30:48;;;;;;;16.70;10.63;;;;;;;19.56;81.07;101596.88;4978115;28;20065;-48
2021/08/22 09:33:51;;;;;;;17.98;11.65;;;;;;;19.37;81.12;101595.28;4964370;28;20026;-47
2021/08/22 09:36:31;;;;;;;17.90;11.48;;;;;;;19.32;81.67;101594.47;4945492;28;24312;-49
2021/08/22 09:39:34;;;;;;;19.75;12.38;;;;;;;19.21;82.07;101601.66;4959704;28;20505;-47
2021/08/22 09:42:40;;;;;;;17.33;11.70;;;;;;;19.10;83.02;101599.09;5100419;27;20410;-47
2021/08/22 09:45:43;;;;;;;22.60;13.52;;;;;;;18.93;83.54;101606.31;5070782;27;20514;-51
2021/08/22 09:48:30;;;;;;;22.42;13.65;;;;;;;18.80;83.61;101602.91;5039854;28;20101;-46
2021/08/22 09:51:08;;;;;;;21.20;13.75;;;;;;;18.81;84.20;101607.31;5055226;28;20052;-49
2021/08/22 09:53:45;;;;;;;24.48;14.40;;;;;;;18.82;84.31;101609.06;5034590;28;20408;-49
2021/08/22 09:56:48;;;;;;;21.85;13.93;;;;;;;18.74;84.33;101610.88;5038959;28;20049;-48
2021/08/22 09:59:42;;;;;;;27.25;15.20;;;;;;;18.74;84.73;101616.16;5017315;28;20053;-47
2021/08/22 10:02:29;;;;;;;22.98;12.85;;;;;;;18.79;84.52;101610.84;4991441;28;77430;-48
2021/08/22 10:05:09;;;;;;;28.08;15.55;;;;;;;18.83;84.94;101610.81;4995706;28;20541;-46
2021/08/22 10:07:46;;;;;;;24.60;14.80;;;;;;;18.91;84.83;101608.09;4995590;28;20091;-49
2021/08/22 10:10:18;;;;;;;21.70;14.05;;;;;;;19.03;84.92;101608.84;4992195;28;20025;-48
2021/08/22 10:12:43;;;;;;;23.48;13.75;;;;;;;19.12;83.78;101602.59;4999336;28;20127;-49
2021/08/22 10:15:10;;;;;;;23.13;13.65;;;;;;;19.27;84.58;101605.06;4997650;28;20530;-49
2021/08/22 10:17:35;;;;;;;23.75;14.45;;;;;;;19.38;84.04;101604.97;4999291;28;20437;-47
2021/08/22 10:20:01;;;;;;;18.67;12.32;;;;;;;19.47;83.38;101602.25;5000549;28;20045;-47
2021/08/22 10:22:36;;;;;;;17.92;10.93;;;;;;;19.57;82.64;101603.03;4997915;28;20049;-47
2021/08/22 10:25:14;;;;;;;15.45;9.98;;;;;;;19.65;82.21;101604.66;4998564;28;20021;-48
2021/08/22 10:27:45;;;;;;;17.02;10.55;;;;;;;19.66;82.12;101603.78;4994802;28;20132;-46
2021/08/22 10:30:22;;;;;;;14.80;9.15;;;;;;;19.62;81.82;101609.13;4996899;28;20649;-48
2021/08/22 10:32:56;;;;;;;11.93;8.32;;;;;;;19.60;81.08;101609.16;4992263;28;20034;-46
2021/08/22 10:35:26;;;;;;;9.98;6.35;;;;;;;19.75;80.15;101613.38;5000236;28;20119;-51
2021/08/22 10:37:51;;;;;;;9.68;6.45;;;;;;;20.39;76.66;101615.16;4998359;28;20040;-48
2021/08/22 10:40:26;;;;;;;10.13;6.22;;;;;;;20.49;76.56;101611.50;5001371;28;20050;-47
2021/08/22 10:42:57;;;;;;;9.15;5.78;;;;;;;20.49;75.88;101614.97;5002233;28;20500;-48
2021/08/22 10:45:45;;;;;;;9.93;5.47;;;;;;;20.73;75.90;101613.75;4999752;28;20297;-47
2021/08/22 10:48:34;;;;;;;8.27;5.03;;;;;;;20.92;74.88;101617.78;5001767;28;20033;-47
2021/08/22 10:50:59;;;;;;;9.23;5.28;;;;;;;21.13;73.77;101607.72;4988031;28;20054;-49
2021/08/22 10:53:25;;;;;;;8.00;5.22;;;;;;;21.19;74.47;101613.81;4987135;28;20043;-48
2021/08/22 10:55:51;;;;;;;10.18;5.57;;;;;;;21.33;74.26;101621.53;4981689;28;20040;-50
2021/08/22 10:58:16;;;;;;;9.05;5.40;;;;;;;21.40;73.51;101618.72;4984799;28;20030;-49
2021/08/22 11:00:42;;;;;;;9.20;5.10;;;;;;;21.39;74.27;101614.31;4982423;28;20689;-47
2021/08/22 11:03:16;;;;;;;8.13;4.80;;;;;;;21.23;72.82;101617.28;4987670;28;20433;-48
2021/08/22 11:05:43;;;;;;;8.77;4.82;;;;;;;21.21;72.91;101622.63;4986888;28;20030;-49
2021/08/22 11:08:11;;;;;;;9.40;4.97;;;;;;;21.00;73.48;101618.53;5001621;28;20022;-47
2021/08/22 11:10:37;;;;;;;9.77;4.45;;;;;;;20.73;74.74;101620.81;4985314;28;20029;-48
2021/08/22 11:13:02;;;;;;;14.00;4.03;;;;;;;20.53;74.27;101616.72;4982954;28;20057;-48
2021/08/22 11:15:29;;;;;;;7.57;3.65;;;;;;;20.36;74.83;101610.81;4992740;28;20029;-48
2021/08/22 11:17:56;;;;;;;7.03;3.58;;;;;;;20.20;76.02;101615.41;4987738;28;20394;-46
2021/08/22 11:20:29;;;;;;;8.45;3.70;;;;;;;20.12;75.92;101619.94;4981260;28;20034;-48